createdAt,value
2023-03-21T00:00:17.461Z,90.7
2023-03-21T00:01:16.938Z,90.7
2023-03-21T00:02:17.023Z,90.7
2023-03-21T00:03:16.756Z,90.7
2023-03-21T00:04:17.406Z,90.7
2023-03-21T00:05:17.132Z,90.7
2023-03-21T00:06:16.635Z,90.8
2023-03-21T00:07:17.116Z,90.8
2023-03-21T00:08:16.584Z,90.8
2023-03-21T00:09:17.335Z,90.9
2023-03-21T00:10:39.415Z,90.9
2023-03-21T00:11:16.481Z,90.8
2023-03-21T00:12:17.241Z,90.8
2023-03-21T00:13:16.732Z,90.9
2023-03-21T00:14:17.244Z,91.0
2023-03-21T00:15:22.644Z,90.8
2023-03-21T00:16:30.133Z,90.4
2023-03-21T00:17:16.594Z,90.1
2023-03-21T00:18:17.132Z,90.1
2023-03-21T00:19:16.632Z,90.1
2023-03-21T00:20:17.151Z,90.0
2023-03-21T00:21:40.845Z,89.9
2023-03-21T00:22:17.212Z,90.0
2023-03-21T00:23:16.714Z,90.3
2023-03-21T00:24:17.228Z,90.3
2023-03-21T00:25:16.734Z,90.5
2023-03-21T00:26:17.398Z,90.1
2023-03-21T00:27:47.490Z,90.0
2023-03-21T00:28:16.502Z,90.2
2023-03-21T00:29:17.025Z,90.6
2023-03-21T00:30:16.521Z,90.6
2023-03-21T00:31:17.007Z,90.7
2023-03-21T00:32:17.092Z,90.7
2023-03-21T00:33:22.976Z,90.4
2023-03-21T00:34:27.163Z,90.6
2023-03-21T00:35:53.335Z,90.8
2023-03-21T00:36:16.944Z,90.8
2023-03-21T00:37:16.493Z,90.9
2023-03-21T00:38:16.976Z,91.2
2023-03-21T00:39:16.502Z,91.3
2023-03-21T00:40:33.023Z,91.3
2023-03-21T00:41:40.876Z,91.3
2023-03-21T00:42:17.122Z,91.2
2023-03-21T00:43:16.640Z,91.2
2023-03-21T00:44:17.161Z,91.2
2023-03-21T00:45:16.797Z,91.4
2023-03-21T00:46:17.354Z,91.5
2023-03-21T00:47:16.916Z,91.5
2023-03-21T00:48:17.483Z,91.4
2023-03-21T00:49:17.102Z,91.3
2023-03-21T00:50:16.614Z,91.3
2023-03-21T00:51:17.098Z,91.2
2023-03-21T00:52:38.304Z,91.1
2023-03-21T00:53:17.374Z,91.0
2023-03-21T00:54:16.866Z,91.0
2023-03-21T00:55:17.387Z,90.9
2023-03-21T00:56:16.899Z,91.1
2023-03-21T00:57:20.348Z,91.2
2023-03-21T00:58:16.622Z,91.4
2023-03-21T00:59:17.300Z,91.6
2023-03-21T01:00:16.790Z,91.7
2023-03-21T01:01:17.457Z,91.9
2023-03-21T01:02:16.812Z,92.1
2023-03-21T01:03:25.653Z,92.2
2023-03-21T01:04:17.408Z,92.3
2023-03-21T01:05:16.882Z,92.4
2023-03-21T01:06:17.380Z,92.3
2023-03-21T01:07:16.879Z,92.3
2023-03-21T01:08:31.351Z,92.3
2023-03-21T01:09:16.743Z,92.2
2023-03-21T01:10:17.221Z,92.1
2023-03-21T01:11:16.759Z,92.1
2023-03-21T01:12:16.971Z,92.2
2023-03-21T01:13:16.494Z,92.2
2023-03-21T01:14:23.779Z,92.7
2023-03-21T01:15:17.393Z,92.8
2023-03-21T01:16:17.008Z,92.8
2023-03-21T01:17:16.563Z,92.8
2023-03-21T01:18:17.037Z,92.7
2023-03-21T01:19:31.179Z,92.6
2023-03-21T01:20:17.061Z,92.5
2023-03-21T01:21:16.574Z,92.4
2023-03-21T01:22:17.370Z,92.4
2023-03-21T01:23:16.862Z,92.3
2023-03-21T01:24:17.407Z,92.2
2023-03-21T01:25:23.123Z,92.1
2023-03-21T01:26:16.695Z,92.0
2023-03-21T01:27:17.187Z,92.0
2023-03-21T01:28:16.673Z,91.9
2023-03-21T01:29:17.218Z,91.9
2023-03-21T01:30:23.969Z,91.8
2023-03-21T01:31:16.733Z,91.7
2023-03-21T01:32:16.714Z,91.7
2023-03-21T01:33:17.227Z,91.7
2023-03-21T01:34:16.717Z,91.8
2023-03-21T01:35:17.218Z,91.8
2023-03-21T01:36:18.335Z,91.9
2023-03-21T01:37:17.249Z,92.0
2023-03-21T01:38:16.747Z,92.0
2023-03-21T01:39:17.347Z,92.1
2023-03-21T01:40:16.857Z,92.1
2023-03-21T01:41:20.392Z,91.9
2023-03-21T01:42:16.478Z,92.0
2023-03-21T01:43:16.987Z,91.9
2023-03-21T01:44:16.512Z,91.8
2023-03-21T01:45:16.996Z,91.8
2023-03-21T01:46:16.575Z,91.8
2023-03-21T01:47:17.135Z,91.7
2023-03-21T01:48:16.765Z,91.7
2023-03-21T01:49:17.308Z,91.7
2023-03-21T01:50:16.839Z,91.7
2023-03-21T01:51:17.336Z,91.5
2023-03-21T01:52:36.276Z,91.5
2023-03-21T01:53:16.726Z,91.3
2023-03-21T01:54:17.242Z,91.2
2023-03-21T01:55:16.745Z,91.2
2023-03-21T01:56:17.219Z,91.2
2023-03-21T01:57:16.689Z,91.2
2023-03-21T01:58:17.198Z,91.4
2023-03-21T01:59:16.718Z,91.5
2023-03-21T02:00:17.228Z,91.5
2023-03-21T02:01:16.788Z,91.7
2023-03-21T02:02:16.726Z,91.7
2023-03-21T02:03:35.606Z,91.7
2023-03-21T02:04:17.258Z,91.8
2023-03-21T02:05:16.819Z,91.9
2023-03-21T02:06:17.338Z,92.0
2023-03-21T02:07:16.881Z,92.0
2023-03-21T02:08:17.375Z,92.1
2023-03-21T02:09:16.880Z,92.2
2023-03-21T02:10:17.376Z,92.2
2023-03-21T02:11:16.880Z,92.1
2023-03-21T02:12:16.681Z,92.0
2023-03-21T02:13:17.175Z,92.0
2023-03-21T02:14:29.482Z,92.0
2023-03-21T02:15:17.222Z,92.0
2023-03-21T02:16:16.811Z,92.0
2023-03-21T02:17:17.342Z,92.1
2023-03-21T02:18:16.853Z,92.1
2023-03-21T02:19:29.907Z,92.1
2023-03-21T02:20:17.376Z,92.1
2023-03-21T02:21:16.872Z,92.3
2023-03-21T02:22:16.867Z,92.3
2023-03-21T02:23:17.380Z,92.3
2023-03-21T02:24:16.864Z,92.5
2023-03-21T02:25:22.532Z,92.4
2023-03-21T02:26:17.132Z,92.4
2023-03-21T02:27:16.597Z,91.8
2023-03-21T02:28:17.062Z,91.9
2023-03-21T02:29:17.957Z,92.0
2023-03-21T02:30:31.979Z,92.0
2023-03-21T02:31:17.144Z,92.1
2023-03-21T02:32:36.850Z,92.3
2023-03-21T02:33:16.874Z,92.2
2023-03-21T02:34:17.426Z,92.0
2023-03-21T02:35:16.977Z,92.0
2023-03-21T02:36:16.630Z,92.0
2023-03-21T02:37:18.099Z,92.1
2023-03-21T02:38:16.573Z,92.2
2023-03-21T02:39:17.078Z,92.1
2023-03-21T02:40:16.562Z,92.1
2023-03-21T02:41:20.106Z,92.1
2023-03-21T02:42:17.018Z,92.2
2023-03-21T02:43:24.080Z,92.2
2023-03-21T02:44:16.661Z,92.1
2023-03-21T02:45:17.166Z,92.2
2023-03-21T02:46:16.742Z,92.3
2023-03-21T02:47:17.387Z,92.3
2023-03-21T02:48:35.490Z,92.7
2023-03-21T02:49:16.475Z,92.8
2023-03-21T02:50:17.022Z,92.8
2023-03-21T02:51:16.514Z,92.7
2023-03-21T02:52:37.667Z,92.6
2023-03-21T02:53:17.208Z,92.5
2023-03-21T02:54:41.992Z,91.9
2023-03-21T02:55:17.289Z,91.7
2023-03-21T02:56:16.801Z,91.3
2023-03-21T02:57:17.292Z,90.7
2023-03-21T02:58:16.799Z,91.0
2023-03-21T02:59:17.342Z,91.0
2023-03-21T03:00:18.189Z,90.8
2023-03-21T03:01:16.841Z,90.9
2023-03-21T03:02:17.357Z,90.8
2023-03-21T03:03:34.293Z,90.8
2023-03-21T03:04:17.142Z,91.1
2023-03-21T03:05:22.069Z,90.9
2023-03-21T03:06:16.627Z,90.6
2023-03-21T03:07:17.120Z,90.8
2023-03-21T03:08:17.436Z,91.0
2023-03-21T03:09:16.942Z,90.1
2023-03-21T03:10:17.473Z,89.8
2023-03-21T03:11:16.998Z,89.7
2023-03-21T03:12:16.526Z,90.8
2023-03-21T03:13:17.037Z,91.2
2023-03-21T03:14:44.041Z,91.7
2023-03-21T03:15:17.090Z,92.1
2023-03-21T03:16:16.751Z,92.1
2023-03-21T03:17:17.271Z,92.1
2023-03-21T03:18:16.782Z,92.3
2023-03-21T03:19:17.298Z,92.3
2023-03-21T03:20:17.727Z,92.2
2023-03-21T03:21:17.256Z,92.3
2023-03-21T03:22:17.346Z,92.3
2023-03-21T03:23:16.877Z,92.3
2023-03-21T03:24:17.392Z,92.7
2023-03-21T03:25:41.468Z,93.1
2023-03-21T03:26:16.810Z,93.3
2023-03-21T03:27:17.299Z,93.6
2023-03-21T03:28:16.985Z,93.6
2023-03-21T03:29:16.507Z,93.6
2023-03-21T03:30:17.020Z,93.4
2023-03-21T03:31:18.822Z,93.5
2023-03-21T03:32:16.959Z,93.8
2023-03-21T03:33:17.468Z,93.8
2023-03-21T03:34:16.963Z,94.0
2023-03-21T03:35:17.456Z,93.9
2023-03-21T03:36:32.345Z,93.9
2023-03-21T03:37:17.181Z,93.7
2023-03-21T03:38:16.679Z,93.7
2023-03-21T03:39:17.214Z,93.7
2023-03-21T03:40:16.700Z,93.6
2023-03-21T03:41:17.280Z,93.9
2023-03-21T03:42:29.046Z,94.0
2023-03-21T03:43:16.627Z,94.2
2023-03-21T03:44:17.133Z,94.2
2023-03-21T03:45:16.658Z,94.3
2023-03-21T03:46:17.266Z,94.3
2023-03-21T03:47:33.626Z,94.3
2023-03-21T03:48:17.486Z,94.2
2023-03-21T03:49:17.003Z,94.2
2023-03-21T03:50:16.490Z,94.1
2023-03-21T03:51:16.975Z,94.0
2023-03-21T03:52:16.757Z,93.9
2023-03-21T03:53:19.003Z,93.7
2023-03-21T03:54:16.574Z,93.6
2023-03-21T03:55:17.095Z,93.5
2023-03-21T03:56:16.569Z,93.5
2023-03-21T03:57:16.795Z,93.3
2023-03-21T03:58:27.375Z,93.3
2023-03-21T03:59:16.677Z,93.3
2023-03-21T04:00:17.178Z,93.2
2023-03-21T04:01:16.654Z,93.1
2023-03-21T04:02:17.554Z,93.2
2023-03-21T04:03:17.184Z,93.5
2023-03-21T04:04:16.924Z,93.7
2023-03-21T04:05:16.444Z,93.7
2023-03-21T04:06:16.944Z,93.6
2023-03-21T04:07:17.442Z,93.5
2023-03-21T04:08:16.915Z,93.4
2023-03-21T04:09:25.029Z,93.4
2023-03-21T04:10:17.354Z,93.3
2023-03-21T04:11:16.889Z,93.2
2023-03-21T04:12:16.960Z,93.2
2023-03-21T04:13:17.470Z,93.3
2023-03-21T04:14:16.982Z,93.4
2023-03-21T04:15:16.525Z,93.5
2023-03-21T04:16:17.142Z,93.5
2023-03-21T04:17:16.698Z,93.6
2023-03-21T04:18:17.205Z,93.5
2023-03-21T04:19:16.699Z,93.4
2023-03-21T04:20:36.445Z,93.4
2023-03-21T04:21:16.506Z,93.4
2023-03-21T04:22:16.518Z,93.4
2023-03-21T04:23:17.003Z,93.3
2023-03-21T04:24:16.519Z,93.3
2023-03-21T04:25:33.674Z,93.3
2023-03-21T04:26:17.416Z,93.3
2023-03-21T04:27:16.923Z,93.3
2023-03-21T04:28:17.434Z,93.3
2023-03-21T04:29:16.928Z,93.3
2023-03-21T04:30:17.422Z,93.3
2023-03-21T04:31:26.395Z,93.2
2023-03-21T04:32:17.158Z,93.2
2023-03-21T04:33:16.636Z,93.1
2023-03-21T04:34:17.147Z,93.0
2023-03-21T04:35:16.631Z,93.0
2023-03-21T04:36:17.144Z,92.9
2023-03-21T04:37:16.621Z,92.8
2023-03-21T04:38:17.118Z,92.8
2023-03-21T04:39:16.591Z,92.7
2023-03-21T04:40:17.276Z,92.7
2023-03-21T04:41:16.904Z,92.7
2023-03-21T04:42:16.599Z,92.7
2023-03-21T04:43:17.089Z,92.7
2023-03-21T04:44:16.656Z,92.8
2023-03-21T04:45:17.172Z,93.0
2023-03-21T04:46:16.844Z,93.1
2023-03-21T04:47:17.411Z,93.2
2023-03-21T04:48:16.991Z,93.2
2023-03-21T04:49:16.544Z,93.3
2023-03-21T04:50:17.038Z,93.2
2023-03-21T04:51:16.542Z,93.1
2023-03-21T04:52:16.605Z,93.1
2023-03-21T04:53:17.100Z,93.2
2023-03-21T04:54:16.601Z,93.3
2023-03-21T04:55:17.101Z,93.4
2023-03-21T04:56:16.648Z,93.4
2023-03-21T04:57:17.210Z,93.4
2023-03-21T04:58:16.700Z,93.4
2023-03-21T04:59:17.362Z,93.4
2023-03-21T05:00:16.855Z,93.5
2023-03-21T05:01:17.524Z,93.5
2023-03-21T05:02:16.487Z,93.7
2023-03-21T05:03:16.989Z,93.8
2023-03-21T05:04:16.698Z,93.9
2023-03-21T05:05:17.206Z,93.9
2023-03-21T05:06:16.756Z,94.0
2023-03-21T05:07:17.273Z,94.2
2023-03-21T05:08:16.777Z,94.2
2023-03-21T05:09:17.283Z,94.2
2023-03-21T05:10:16.817Z,94.1
2023-03-21T05:11:17.287Z,94.4
2023-03-21T05:12:17.184Z,94.4
2023-03-21T05:13:16.674Z,94.4
2023-03-21T05:14:17.163Z,94.5
2023-03-21T05:15:16.659Z,94.6
2023-03-21T05:16:17.306Z,94.7
2023-03-21T05:17:16.834Z,94.8
2023-03-21T05:18:17.368Z,94.8
2023-03-21T05:19:16.887Z,94.9
2023-03-21T05:20:17.388Z,95.0
2023-03-21T05:21:16.892Z,95.1
2023-03-21T05:22:17.290Z,95.1
2023-03-21T05:23:16.806Z,95.2
2023-03-21T05:24:17.345Z,95.2
2023-03-21T05:25:16.847Z,95.2
2023-03-21T05:26:17.380Z,95.3
2023-03-21T05:27:16.876Z,95.3
2023-03-21T05:28:17.418Z,95.3
2023-03-21T05:29:16.887Z,95.3
2023-03-21T05:30:17.391Z,95.3
2023-03-21T05:31:17.051Z,95.3
2023-03-21T05:32:16.692Z,95.2
2023-03-21T05:33:17.183Z,95.2
2023-03-21T05:34:16.690Z,95.2
2023-03-21T05:35:17.239Z,95.1
2023-03-21T05:36:16.877Z,95.0
2023-03-21T05:37:17.405Z,94.9
2023-03-21T05:38:16.914Z,94.7
2023-03-21T05:39:17.479Z,94.7
2023-03-21T05:40:17.025Z,94.6
2023-03-21T05:41:19.404Z,94.6
2023-03-21T05:42:16.687Z,94.6
2023-03-21T05:43:17.181Z,94.6
2023-03-21T05:44:16.673Z,94.5
2023-03-21T05:45:17.171Z,94.6
2023-03-21T05:46:16.726Z,94.7
2023-03-21T05:47:17.295Z,94.7
2023-03-21T05:48:16.854Z,94.7
2023-03-21T05:49:17.421Z,94.7
2023-03-21T05:50:16.890Z,94.6
2023-03-21T05:51:17.406Z,94.7
2023-03-21T05:52:17.374Z,94.7
2023-03-21T05:53:16.906Z,94.7
2023-03-21T05:54:17.421Z,94.7
2023-03-21T05:55:16.908Z,94.6
2023-03-21T05:56:17.428Z,94.6
2023-03-21T05:57:16.905Z,94.5
2023-03-21T05:58:17.423Z,94.4
2023-03-21T05:59:16.906Z,94.4
2023-03-21T06:00:17.437Z,94.5
2023-03-21T06:01:16.978Z,94.6
2023-03-21T06:02:17.242Z,94.7
2023-03-21T06:03:16.758Z,94.7
2023-03-21T06:04:17.363Z,94.8
2023-03-21T06:05:16.888Z,94.9
2023-03-21T06:06:17.382Z,95.0
2023-03-21T06:07:16.889Z,95.0
2023-03-21T06:08:17.395Z,94.9
2023-03-21T06:09:16.891Z,94.8
2023-03-21T06:10:17.421Z,94.8
2023-03-21T06:11:16.929Z,94.7
2023-03-21T06:12:16.804Z,94.6
2023-03-21T06:13:17.344Z,94.5
2023-03-21T06:14:16.846Z,94.2
2023-03-21T06:15:17.395Z,94.3
2023-03-21T06:16:17.047Z,94.2
2023-03-21T06:17:16.603Z,94.2
2023-03-21T06:18:17.123Z,94.3
2023-03-21T06:19:16.595Z,94.3
2023-03-21T06:20:17.091Z,94.2
2023-03-21T06:21:16.574Z,94.1
2023-03-21T06:22:16.765Z,94.1
2023-03-21T06:23:17.249Z,93.8
2023-03-21T06:24:16.768Z,93.6
2023-03-21T06:25:17.280Z,93.7
2023-03-21T06:26:16.829Z,93.6
2023-03-21T06:27:17.412Z,93.2
2023-03-21T06:28:16.909Z,93.0
2023-03-21T06:29:17.421Z,92.8
2023-03-21T06:30:16.945Z,92.4
2023-03-21T06:31:17.665Z,92.3
2023-03-21T06:32:17.260Z,92.4
2023-03-21T06:33:16.749Z,92.4
2023-03-21T06:34:17.287Z,92.0
2023-03-21T06:35:16.801Z,91.5
2023-03-21T06:36:17.319Z,91.3
2023-03-21T06:37:16.819Z,91.1
2023-03-21T06:38:17.354Z,90.6
2023-03-21T06:39:16.883Z,90.4
2023-03-21T06:40:17.432Z,89.5
2023-03-21T06:41:17.028Z,89.6
2023-03-21T06:42:17.365Z,89.9
2023-03-21T06:43:16.880Z,89.8
2023-03-21T06:44:17.401Z,89.6
2023-03-21T06:45:16.886Z,89.6
2023-03-21T06:46:17.674Z,89.1
2023-03-21T06:47:17.181Z,88.6
2023-03-21T06:48:16.793Z,88.9
2023-03-21T06:49:17.325Z,89.5
2023-03-21T06:50:16.813Z,89.5
2023-03-21T06:51:17.305Z,89.4
2023-03-21T06:52:17.000Z,88.7
2023-03-21T06:53:16.480Z,89.1
2023-03-21T06:54:16.974Z,89.1
2023-03-21T06:55:16.510Z,88.8
2023-03-21T06:56:17.024Z,88.7
2023-03-21T06:57:16.527Z,88.0
2023-03-21T06:58:17.025Z,88.1
2023-03-21T06:59:16.569Z,88.8
2023-03-21T07:00:17.161Z,87.3
2023-03-21T07:01:16.840Z,87.5
2023-03-21T07:02:16.952Z,87.0
2023-03-21T07:03:16.471Z,87.6
2023-03-21T07:04:16.959Z,87.8
2023-03-21T07:05:17.505Z,87.5
2023-03-21T07:06:17.005Z,87.1
2023-03-21T07:07:16.679Z,87.0
2023-03-21T07:08:17.399Z,86.9
2023-03-21T07:09:16.933Z,86.7
2023-03-21T07:10:17.454Z,86.5
2023-03-21T07:11:16.957Z,85.2
2023-03-21T07:12:17.090Z,85.3
2023-03-21T07:13:16.608Z,86.2
2023-03-21T07:14:17.104Z,86.4
2023-03-21T07:15:16.605Z,86.6
2023-03-21T07:16:17.232Z,86.1
2023-03-21T07:17:16.777Z,86.6
2023-03-21T07:18:17.345Z,86.6
2023-03-21T07:19:16.847Z,84.9
2023-03-21T07:20:17.372Z,85.7
2023-03-21T07:21:16.905Z,86.0
2023-03-21T07:22:17.067Z,86.2
2023-03-21T07:23:16.575Z,85.8
2023-03-21T07:24:17.062Z,85.8
2023-03-21T07:25:16.645Z,85.4
2023-03-21T07:26:17.199Z,83.7
2023-03-21T07:27:16.725Z,83.9
2023-03-21T07:28:17.235Z,84.7
2023-03-21T07:29:16.746Z,83.3
2023-03-21T07:30:17.276Z,83.8
2023-03-21T07:31:16.949Z,83.9
2023-03-21T07:32:16.830Z,84.4
2023-03-21T07:33:17.328Z,84.2
2023-03-21T07:34:16.939Z,83.1
2023-03-21T07:35:17.443Z,83.4
2023-03-21T07:36:17.025Z,83.4
2023-03-21T07:37:16.519Z,83.0
2023-03-21T07:38:17.041Z,83.1
2023-03-21T07:39:16.520Z,82.8
2023-03-21T07:40:17.059Z,83.5
2023-03-21T07:42:17.463Z,83.0
2023-03-21T07:44:16.507Z,82.8
2023-03-21T07:45:21.086Z,82.2
2023-03-21T07:46:17.042Z,80.4
2023-03-21T07:47:16.558Z,81.3
2023-03-21T07:48:17.195Z,81.0
2023-03-21T07:49:16.706Z,80.4
2023-03-21T07:50:17.241Z,79.6
2023-03-21T07:51:16.763Z,79.3
2023-03-21T07:52:17.043Z,78.9
2023-03-21T07:53:16.586Z,77.8
2023-03-21T07:54:17.122Z,77.9
2023-03-21T07:55:16.636Z,77.7
2023-03-21T07:56:17.166Z,78.5
2023-03-21T07:57:16.701Z,78.6
2023-03-21T07:58:17.222Z,76.1
2023-03-21T07:59:16.743Z,77.0
2023-03-21T08:00:17.234Z,76.9
2023-03-21T08:01:16.712Z,77.4
2023-03-21T08:02:17.523Z,76.2
2023-03-21T08:03:17.153Z,75.8
2023-03-21T08:04:16.663Z,76.4
2023-03-21T08:05:17.188Z,76.0
2023-03-21T08:06:16.687Z,76.9
2023-03-21T08:07:17.236Z,77.0
2023-03-21T08:08:16.739Z,75.1
2023-03-21T08:09:17.339Z,75.3
2023-03-21T08:10:16.877Z,75.1
2023-03-21T08:11:17.405Z,75.5
2023-03-21T08:12:16.943Z,72.8
2023-03-21T08:13:17.435Z,73.8
2023-03-21T08:14:16.957Z,74.3
2023-03-21T08:15:16.489Z,74.5
2023-03-21T08:16:17.057Z,74.0
2023-03-21T08:17:16.589Z,73.8
2023-03-21T08:18:17.072Z,74.2
2023-03-21T08:19:16.568Z,73.2
2023-03-21T08:20:17.097Z,73.7
2023-03-21T08:21:16.594Z,73.3
2023-03-21T08:22:16.725Z,73.3
2023-03-21T08:23:17.229Z,73.3
2023-03-21T08:24:16.716Z,71.9
2023-03-21T08:25:17.221Z,72.2
2023-03-21T08:26:16.718Z,71.9
2023-03-21T08:27:17.227Z,72.0
2023-03-21T08:28:16.708Z,71.6
2023-03-21T08:29:17.237Z,70.7
2023-03-21T08:30:16.784Z,70.2
2023-03-21T08:31:17.476Z,71.6
2023-03-21T08:32:17.101Z,71.1
2023-03-21T08:33:16.597Z,70.5
2023-03-21T08:34:17.063Z,69.6
2023-03-21T08:35:16.605Z,69.9
2023-03-21T08:36:17.199Z,69.5
2023-03-21T08:37:16.745Z,68.3
2023-03-21T08:38:17.350Z,66.1
2023-03-21T08:39:16.886Z,65.2
2023-03-21T08:40:17.431Z,65.2
2023-03-21T08:41:16.944Z,65.2
2023-03-21T08:42:17.125Z,64.5
2023-03-21T08:43:16.681Z,64.7
2023-03-21T08:44:17.236Z,64.8
2023-03-21T08:45:16.720Z,64.4
2023-03-21T08:46:17.291Z,63.6
2023-03-21T08:47:16.786Z,62.7
2023-03-21T08:48:17.364Z,62.3
2023-03-21T08:49:17.884Z,62.5
2023-03-21T08:50:17.409Z,59.0
2023-03-21T08:51:16.924Z,59.9
2023-03-21T08:52:16.973Z,62.2
2023-03-21T08:53:16.488Z,62.2
2023-03-21T08:54:16.981Z,61.6
2023-03-21T08:55:16.521Z,59.3
2023-03-21T08:56:16.996Z,60.2
2023-03-21T08:57:16.529Z,60.4
2023-03-21T08:58:17.029Z,59.9
2023-03-21T08:59:16.562Z,58.8
2023-03-21T09:00:17.069Z,57.9
2023-03-21T09:01:16.536Z,57.5
2023-03-21T09:02:16.817Z,57.1
2023-03-21T09:03:17.330Z,56.4
2023-03-21T09:04:16.881Z,55.9
2023-03-21T09:05:17.416Z,54.9
2023-03-21T09:06:16.918Z,54.2
2023-03-21T09:07:17.478Z,53.0
2023-03-21T09:08:17.024Z,55.5
2023-03-21T09:09:16.567Z,56.5
2023-03-21T09:10:22.790Z,56.6
2023-03-21T09:11:16.650Z,58.6
2023-03-21T09:12:17.419Z,59.3
2023-03-21T09:13:16.925Z,57.9
2023-03-21T09:14:17.749Z,55.4
2023-03-21T09:15:16.898Z,56.6
2023-03-21T09:16:17.726Z,57.5
2023-03-21T09:17:21.145Z,57.1
2023-03-21T09:18:16.699Z,59.4
2023-03-21T09:19:17.185Z,59.5
2023-03-21T09:20:16.681Z,58.1
2023-03-21T09:21:17.213Z,57.4
2023-03-21T09:22:17.234Z,57.6
2023-03-21T09:23:16.730Z,56.2
2023-03-21T09:24:17.240Z,57.9
2023-03-21T09:25:16.746Z,58.6
2023-03-21T09:26:17.317Z,58.8
2023-03-21T09:27:16.829Z,55.7
2023-03-21T09:28:17.322Z,56.1
2023-03-21T09:29:16.817Z,58.6
2023-03-21T09:30:17.310Z,59.1
2023-03-21T09:31:17.004Z,59.9
2023-03-21T09:32:17.301Z,59.3
2023-03-21T09:33:16.779Z,59.0
2023-03-21T09:34:17.376Z,60.2
2023-03-21T09:35:16.888Z,60.8
2023-03-21T09:36:17.515Z,60.7
2023-03-21T09:37:17.027Z,60.4
2023-03-21T09:38:16.537Z,60.4
2023-03-21T09:39:17.033Z,60.0
2023-03-21T09:40:16.527Z,60.3
2023-03-21T09:41:17.032Z,61.3
2023-03-21T09:42:16.749Z,61.8
2023-03-21T09:43:17.241Z,61.8
2023-03-21T09:44:16.958Z,61.9
2023-03-21T09:45:17.672Z,61.5
2023-03-21T09:46:17.260Z,61.3
2023-03-21T09:47:16.768Z,61.3
2023-03-21T09:48:17.333Z,63.0
2023-03-21T09:49:16.900Z,63.7
2023-03-21T09:50:17.523Z,63.6
2023-03-21T09:51:17.061Z,62.8
2023-03-21T09:52:16.551Z,62.8
2023-03-21T09:53:17.036Z,62.4
2023-03-21T09:54:16.540Z,63.5
2023-03-21T09:55:17.087Z,63.8
2023-03-21T09:56:16.591Z,64.1
2023-03-21T09:57:17.083Z,63.8
2023-03-21T09:58:16.560Z,62.6
2023-03-21T09:59:17.066Z,62.2
2023-03-21T10:00:16.587Z,62.2
2023-03-21T10:01:17.196Z,62.6
2023-03-21T10:02:16.880Z,63.1
2023-03-21T10:03:17.362Z,62.9
2023-03-21T10:04:17.040Z,61.6
2023-03-21T10:05:16.586Z,61.7
2023-03-21T10:06:17.078Z,61.6
2023-03-21T10:07:16.579Z,60.8
2023-03-21T10:08:17.069Z,59.5
2023-03-21T10:09:16.572Z,58.9
2023-03-21T10:10:17.077Z,58.7
2023-03-21T10:11:16.600Z,58.2
2023-03-21T10:12:16.770Z,59.1
2023-03-21T10:13:17.271Z,59.0
2023-03-21T10:14:16.766Z,59.1
2023-03-21T10:15:17.276Z,56.8
2023-03-21T10:16:16.989Z,57.5
2023-03-21T10:17:16.523Z,58.0
2023-03-21T10:18:16.999Z,56.7
2023-03-21T10:19:16.561Z,55.3
2023-03-21T10:20:17.096Z,55.0
2023-03-21T10:21:51.678Z,57.7
2023-03-21T10:22:17.091Z,58.0
2023-03-21T10:23:16.574Z,55.5
2023-03-21T10:24:17.101Z,56.2
2023-03-21T10:25:16.628Z,55.2
2023-03-21T10:26:17.589Z,56.1
2023-03-21T10:27:16.579Z,55.7
2023-03-21T10:28:17.087Z,56.7
2023-03-21T10:29:16.812Z,57.3
2023-03-21T10:30:17.344Z,56.5
2023-03-21T10:31:16.861Z,57.0
2023-03-21T10:32:17.036Z,54.4
2023-03-21T10:33:16.651Z,53.0
2023-03-21T10:34:17.173Z,53.6
2023-03-21T10:35:16.679Z,52.2
2023-03-21T10:36:17.261Z,52.9
2023-03-21T10:37:16.897Z,55.0
2023-03-21T10:38:17.423Z,55.0
2023-03-21T10:39:16.897Z,55.8
2023-03-21T10:40:17.420Z,55.5
2023-03-21T10:41:16.915Z,55.3
2023-03-21T10:42:16.779Z,54.8
2023-03-21T10:43:17.272Z,54.2
2023-03-21T10:44:16.785Z,54.7
2023-03-21T10:45:17.309Z,54.7
2023-03-21T10:46:17.066Z,53.8
2023-03-21T10:47:17.169Z,53.2
2023-03-21T10:48:16.967Z,50.4
2023-03-21T10:49:16.545Z,51.2
2023-03-21T10:50:17.178Z,51.7
2023-03-21T10:51:16.708Z,52.3
2023-03-21T10:52:17.206Z,54.1
2023-03-21T10:53:16.714Z,55.1
2023-03-21T10:54:17.231Z,55.2
2023-03-21T10:55:16.823Z,54.2
2023-03-21T10:56:17.308Z,57.0
2023-03-21T10:57:16.801Z,55.8
2023-03-21T10:58:17.307Z,57.6
2023-03-21T10:59:20.084Z,58.7
2023-03-21T11:00:16.872Z,57.6
2023-03-21T11:01:17.508Z,58.1
2023-03-21T11:02:17.230Z,58.0
2023-03-21T11:03:16.752Z,58.5
2023-03-21T11:04:17.243Z,57.0
2023-03-21T11:05:20.688Z,56.7
2023-03-21T11:06:17.430Z,56.0
2023-03-21T11:07:16.944Z,55.1
2023-03-21T11:08:17.448Z,54.2
2023-03-21T11:09:16.957Z,55.5
2023-03-21T11:10:28.953Z,56.5
2023-03-21T11:11:18.298Z,56.5
2023-03-21T11:12:16.715Z,56.8
2023-03-21T11:13:17.233Z,54.9
2023-03-21T11:14:16.735Z,55.3
2023-03-21T11:15:17.223Z,56.1
2023-03-21T11:16:16.769Z,55.9
2023-03-21T11:17:17.280Z,56.7
2023-03-21T11:18:16.779Z,56.6
2023-03-21T11:19:17.286Z,56.9
2023-03-21T11:20:16.859Z,57.1
2023-03-21T11:21:17.411Z,57.6
2023-03-21T11:22:16.513Z,57.4
2023-03-21T11:23:20.705Z,56.7
2023-03-21T11:24:17.392Z,57.7
2023-03-21T11:25:16.909Z,57.9
2023-03-21T11:26:17.408Z,57.0
2023-03-21T11:27:16.879Z,56.3
2023-03-21T11:28:17.376Z,57.3
2023-03-21T11:29:19.384Z,57.8
2023-03-21T11:30:16.919Z,56.4
2023-03-21T11:31:16.733Z,56.2
2023-03-21T11:32:16.616Z,55.9
2023-03-21T11:33:17.114Z,55.8
2023-03-21T11:34:16.660Z,56.9
2023-03-21T11:35:19.893Z,57.3
2023-03-21T11:36:17.520Z,56.7
2023-03-21T11:37:17.067Z,57.7
2023-03-21T11:38:16.541Z,58.1
2023-03-21T11:39:17.037Z,57.9
2023-03-21T11:40:16.668Z,57.3
2023-03-21T11:41:19.470Z,56.8
2023-03-21T11:42:16.470Z,57.8
2023-03-21T11:43:17.113Z,58.6
2023-03-21T11:44:16.788Z,59.0
2023-03-21T11:45:17.441Z,58.1
2023-03-21T11:46:17.172Z,58.7
2023-03-21T11:47:16.684Z,59.4
2023-03-21T11:48:17.253Z,59.5
2023-03-21T11:49:16.781Z,59.1
2023-03-21T11:50:17.331Z,58.8
2023-03-21T11:51:16.821Z,58.5
2023-03-21T11:52:16.555Z,59.5
2023-03-21T11:53:17.076Z,59.9
2023-03-21T11:54:16.554Z,58.5
2023-03-21T11:55:17.050Z,58.4
2023-03-21T11:56:16.547Z,59.6
2023-03-21T11:57:17.071Z,60.5
2023-03-21T11:58:16.656Z,60.9
2023-03-21T11:59:17.165Z,61.2
2023-03-21T12:00:16.752Z,60.4
2023-03-21T12:01:17.239Z,60.0
2023-03-21T12:02:17.300Z,59.6
2023-03-21T12:03:16.801Z,60.4
2023-03-21T12:04:17.568Z,60.8
2023-03-21T12:05:17.107Z,61.0
2023-03-21T12:06:16.601Z,61.3
2023-03-21T12:07:17.223Z,61.3
2023-03-21T12:08:16.986Z,61.2
2023-03-21T12:09:18.588Z,61.6
2023-03-21T12:10:17.532Z,62.2
2023-03-21T12:11:17.098Z,61.6
2023-03-21T12:12:24.410Z,61.5
2023-03-21T12:13:17.058Z,61.6
2023-03-21T12:14:16.639Z,61.0
2023-03-21T12:15:17.204Z,61.5
2023-03-21T12:16:16.901Z,62.4
2023-03-21T12:17:17.509Z,62.1
2023-03-21T12:18:17.015Z,62.4
2023-03-21T12:19:16.679Z,62.9
2023-03-21T12:20:17.378Z,62.9
2023-03-21T12:21:17.061Z,63.0
2023-03-21T12:22:16.804Z,62.6
2023-03-21T12:23:17.483Z,62.5
2023-03-21T12:24:17.083Z,62.6
2023-03-21T12:25:16.805Z,62.9
2023-03-21T12:26:17.506Z,62.9
2023-03-21T12:27:17.054Z,63.0
2023-03-21T12:28:32.343Z,63.3
2023-03-21T12:29:16.512Z,63.2
2023-03-21T12:30:17.077Z,62.7
2023-03-21T12:31:16.780Z,63.0
2023-03-21T12:32:16.541Z,62.7
2023-03-21T12:33:17.017Z,62.9
2023-03-21T12:34:16.520Z,63.5
2023-03-21T12:35:17.099Z,63.5
2023-03-21T12:36:16.828Z,63.7
2023-03-21T12:37:17.371Z,63.5
2023-03-21T12:38:16.872Z,63.5
2023-03-21T12:39:17.411Z,63.6
2023-03-21T12:40:17.017Z,63.6
2023-03-21T12:41:16.692Z,63.1
2023-03-21T12:42:17.550Z,63.3
2023-03-21T12:43:17.324Z,63.0
2023-03-21T12:44:16.951Z,63.6
2023-03-21T12:45:17.665Z,63.9
2023-03-21T12:46:17.614Z,63.5
2023-03-21T12:47:17.229Z,63.8
2023-03-21T12:48:16.928Z,63.5
2023-03-21T12:49:16.476Z,63.5
2023-03-21T12:50:17.012Z,63.7
2023-03-21T12:51:16.528Z,63.6
2023-03-21T12:52:17.192Z,64.0
2023-03-21T12:53:16.676Z,64.1
2023-03-21T12:54:17.180Z,63.9
2023-03-21T12:55:16.683Z,63.3
2023-03-21T12:56:17.204Z,63.3
2023-03-21T12:57:16.711Z,62.8
2023-03-21T12:58:17.230Z,63.3
2023-03-21T12:59:16.710Z,63.3
2023-03-21T13:00:17.224Z,63.5
2023-03-21T13:01:16.884Z,63.3
2023-03-21T13:02:16.796Z,63.5
2023-03-21T13:03:22.818Z,63.6
2023-03-21T13:04:17.502Z,63.6
2023-03-21T13:05:17.048Z,63.6
2023-03-21T13:06:16.568Z,63.5
2023-03-21T13:07:17.111Z,63.5
2023-03-21T13:08:16.591Z,63.7
2023-03-21T13:09:28.465Z,64.2
2023-03-21T13:10:17.093Z,63.9
2023-03-21T13:12:17.290Z,63.9
2023-03-21T13:13:16.787Z,64.0
2023-03-21T13:14:17.278Z,64.1
2023-03-21T13:15:24.642Z,64.2
2023-03-21T13:16:17.313Z,63.6
2023-03-21T13:17:16.829Z,63.8
2023-03-21T13:18:17.395Z,63.7
2023-03-21T13:19:16.923Z,63.8
2023-03-21T13:20:17.454Z,63.8
2023-03-21T13:21:16.960Z,64.0